sensor_id;sensor_type;location;lat;lon;timestamp;P1;durP1;ratioP1;P2;durP2;ratioP2
66425;SDS011;53237;46.158;14.604;2023-06-19T00:01:10;4.00;;;3.70;;
66425;SDS011;53237;46.158;14.604;2023-06-19T00:03:36;3.83;;;3.53;;
66425;SDS011;53237;46.158;14.604;2023-06-19T00:06:02;4.35;;;3.95;;
66425;SDS011;53237;46.158;14.604;2023-06-19T00:08:28;4.95;;;4.55;;
66425;SDS011;53237;46.158;14.604;2023-06-19T00:10:54;3.80;;;3.50;;
66425;SDS011;53237;46.158;14.604;2023-06-19T00:13:20;4.35;;;3.95;;
66425;SDS011;53237;46.158;14.604;2023-06-19T00:15:46;3.75;;;3.45;;
66425;SDS011;53237;46.158;14.604;2023-06-19T00:18:12;4.57;;;3.80;;
66425;SDS011;53237;46.158;14.604;2023-06-19T00:20:38;4.45;;;4.05;;
66425;SDS011;53237;46.158;14.604;2023-06-19T00:23:04;4.25;;;3.95;;
66425;SDS011;53237;46.158;14.604;2023-06-19T00:25:35;3.95;;;3.65;;
66425;SDS011;53237;46.158;14.604;2023-06-19T00:28:01;4.15;;;3.85;;
66425;SDS011;53237;46.158;14.604;2023-06-19T00:30:27;4.03;;;3.72;;
66425;SDS011;53237;46.158;14.604;2023-06-19T00:32:57;4.18;;;3.72;;
66425;SDS011;53237;46.158;14.604;2023-06-19T00:35:28;3.75;;;3.45;;
66425;SDS011;53237;46.158;14.604;2023-06-19T00:37:54;4.68;;;4.28;;
66425;SDS011;53237;46.158;14.604;2023-06-19T00:40:29;4.20;;;3.85;;
66425;SDS011;53237;46.158;14.604;2023-06-19T00:42:55;4.32;;;3.60;;
66425;SDS011;53237;46.158;14.604;2023-06-19T00:45:22;4.15;;;3.85;;
66425;SDS011;53237;46.158;14.604;2023-06-19T00:47:51;4.05;;;3.75;;
66425;SDS011;53237;46.158;14.604;2023-06-19T00:50:18;4.45;;;4.10;;
66425;SDS011;53237;46.158;14.604;2023-06-19T00:52:44;4.20;;;3.90;;
66425;SDS011;53237;46.158;14.604;2023-06-19T00:55:10;3.97;;;3.67;;
66425;SDS011;53237;46.158;14.604;2023-06-19T00:57:36;4.07;;;3.78;;
66425;SDS011;53237;46.158;14.604;2023-06-19T01:00:04;4.25;;;3.92;;
66425;SDS011;53237;46.158;14.604;2023-06-19T01:02:32;3.97;;;3.55;;
66425;SDS011;53237;46.158;14.604;2023-06-19T01:04:58;4.13;;;3.78;;
66425;SDS011;53237;46.158;14.604;2023-06-19T01:07:37;3.55;;;3.25;;
66425;SDS011;53237;46.158;14.604;2023-06-19T01:10:07;3.97;;;3.67;;
66425;SDS011;53237;46.158;14.604;2023-06-19T01:12:36;4.40;;;4.00;;
66425;SDS011;53237;46.158;14.604;2023-06-19T01:15:03;4.05;;;3.65;;
66425;SDS011;53237;46.158;14.604;2023-06-19T01:17:30;3.80;;;3.50;;
66425;SDS011;53237;46.158;14.604;2023-06-19T01:19:57;3.60;;;3.30;;
66425;SDS011;53237;46.158;14.604;2023-06-19T01:22:32;5.28;;;4.00;;
66425;SDS011;53237;46.158;14.604;2023-06-19T01:24:58;4.18;;;3.80;;
66425;SDS011;53237;46.158;14.604;2023-06-19T01:27:25;5.55;;;4.28;;
66425;SDS011;53237;46.158;14.604;2023-06-19T01:29:54;4.10;;;3.70;;
66425;SDS011;53237;46.158;14.604;2023-06-19T01:32:22;3.75;;;3.45;;
66425;SDS011;53237;46.158;14.604;2023-06-19T01:34:52;4.10;;;3.80;;
66425;SDS011;53237;46.158;14.604;2023-06-19T01:37:18;4.15;;;3.85;;
66425;SDS011;53237;46.158;14.604;2023-06-19T01:39:44;4.43;;;4.03;;
66425;SDS011;53237;46.158;14.604;2023-06-19T01:42:12;4.25;;;3.95;;
66425;SDS011;53237;46.158;14.604;2023-06-19T01:44:39;4.07;;;3.67;;
66425;SDS011;53237;46.158;14.604;2023-06-19T01:47:11;4.30;;;3.90;;
66425;SDS011;53237;46.158;14.604;2023-06-19T01:49:37;4.03;;;3.72;;
66425;SDS011;53237;46.158;14.604;2023-06-19T01:52:04;4.13;;;3.83;;
66425;SDS011;53237;46.158;14.604;2023-06-19T01:54:30;4.72;;;4.32;;
66425;SDS011;53237;46.158;14.604;2023-06-19T01:56:56;4.28;;;3.88;;
66425;SDS011;53237;46.158;14.604;2023-06-19T01:59:22;4.30;;;3.90;;
66425;SDS011;53237;46.158;14.604;2023-06-19T02:01:48;4.50;;;4.10;;
66425;SDS011;53237;46.158;14.604;2023-06-19T02:04:14;3.97;;;3.67;;
66425;SDS011;53237;46.158;14.604;2023-06-19T02:06:40;4.25;;;3.85;;
66425;SDS011;53237;46.158;14.604;2023-06-19T02:09:06;4.38;;;4.07;;
66425;SDS011;53237;46.158;14.604;2023-06-19T02:11:33;4.10;;;3.80;;
66425;SDS011;53237;46.158;14.604;2023-06-19T02:13:59;4.35;;;4.03;;
66425;SDS011;53237;46.158;14.604;2023-06-19T02:16:25;4.53;;;4.13;;
66425;SDS011;53237;46.158;14.604;2023-06-19T02:18:51;4.35;;;4.00;;
66425;SDS011;53237;46.158;14.604;2023-06-19T02:21:17;4.03;;;3.72;;
66425;SDS011;53237;46.158;14.604;2023-06-19T02:23:42;4.57;;;4.18;;
66425;SDS011;53237;46.158;14.604;2023-06-19T02:26:08;4.30;;;3.95;;
66425;SDS011;53237;46.158;14.604;2023-06-19T02:28:34;4.40;;;4.00;;
66425;SDS011;53237;46.158;14.604;2023-06-19T02:31:00;4.22;;;3.90;;
66425;SDS011;53237;46.158;14.604;2023-06-19T02:33:26;4.88;;;4.45;;
66425;SDS011;53237;46.158;14.604;2023-06-19T02:35:53;4.30;;;4.00;;
66425;SDS011;53237;46.158;14.604;2023-06-19T02:38:24;4.30;;;4.00;;
66425;SDS011;53237;46.158;14.604;2023-06-19T02:40:50;4.30;;;4.00;;
66425;SDS011;53237;46.158;14.604;2023-06-19T02:43:16;4.25;;;3.85;;
66425;SDS011;53237;46.158;14.604;2023-06-19T02:45:42;4.72;;;4.25;;
66425;SDS011;53237;46.158;14.604;2023-06-19T02:48:09;4.28;;;3.88;;
66425;SDS011;53237;46.158;14.604;2023-06-19T02:50:35;4.53;;;4.13;;
66425;SDS011;53237;46.158;14.604;2023-06-19T02:53:01;4.00;;;3.70;;
66425;SDS011;53237;46.158;14.604;2023-06-19T02:55:27;4.30;;;4.00;;
66425;SDS011;53237;46.158;14.604;2023-06-19T02:57:53;4.10;;;3.78;;
66425;SDS011;53237;46.158;14.604;2023-06-19T03:00:19;4.10;;;3.80;;
66425;SDS011;53237;46.158;14.604;2023-06-19T03:02:45;4.70;;;4.30;;
66425;SDS011;53237;46.158;14.604;2023-06-19T03:05:13;4.55;;;4.15;;
66425;SDS011;53237;46.158;14.604;2023-06-19T03:07:41;5.45;;;3.60;;
66425;SDS011;53237;46.158;14.604;2023-06-19T03:10:07;4.55;;;4.20;;
66425;SDS011;53237;46.158;14.604;2023-06-19T03:12:33;4.38;;;3.97;;
66425;SDS011;53237;46.158;14.604;2023-06-19T03:14:59;4.70;;;4.30;;
66425;SDS011;53237;46.158;14.604;2023-06-19T03:17:25;4.03;;;3.72;;
66425;SDS011;53237;46.158;14.604;2023-06-19T03:19:50;4.63;;;4.22;;
66425;SDS011;53237;46.158;14.604;2023-06-19T03:22:17;4.70;;;4.30;;
66425;SDS011;53237;46.158;14.604;2023-06-19T03:24:43;5.95;;;4.25;;
66425;SDS011;53237;46.158;14.604;2023-06-19T03:27:09;4.47;;;4.07;;
66425;SDS011;53237;46.158;14.604;2023-06-19T03:29:35;3.90;;;3.60;;
66425;SDS011;53237;46.158;14.604;2023-06-19T03:32:01;5.28;;;4.03;;
66425;SDS011;53237;46.158;14.604;2023-06-19T03:34:27;4.35;;;4.05;;
66425;SDS011;53237;46.158;14.604;2023-06-19T03:36:53;4.55;;;4.00;;
66425;SDS011;53237;46.158;14.604;2023-06-19T03:39:19;4.50;;;4.10;;
66425;SDS011;53237;46.158;14.604;2023-06-19T03:41:45;4.60;;;4.20;;
66425;SDS011;53237;46.158;14.604;2023-06-19T03:44:11;4.07;;;3.78;;
66425;SDS011;53237;46.158;14.604;2023-06-19T03:46:37;4.60;;;4.20;;
66425;SDS011;53237;46.158;14.604;2023-06-19T03:49:03;4.45;;;4.13;;
66425;SDS011;53237;46.158;14.604;2023-06-19T03:51:29;5.13;;;3.90;;
66425;SDS011;53237;46.158;14.604;2023-06-19T03:53:55;4.28;;;3.90;;
66425;SDS011;53237;46.158;14.604;2023-06-19T03:56:21;4.10;;;3.80;;
66425;SDS011;53237;46.158;14.604;2023-06-19T03:58:47;4.53;;;4.22;;
66425;SDS011;53237;46.158;14.604;2023-06-19T04:01:13;4.38;;;3.97;;
66425;SDS011;53237;46.158;14.604;2023-06-19T04:03:39;4.10;;;3.80;;
66425;SDS011;53237;46.158;14.604;2023-06-19T04:06:05;4.43;;;4.03;;
66425;SDS011;53237;46.158;14.604;2023-06-19T04:08:32;4.47;;;4.05;;
66425;SDS011;53237;46.158;14.604;2023-06-19T04:10:58;4.80;;;4.40;;
66425;SDS011;53237;46.158;14.604;2023-06-19T04:13:24;4.85;;;4.22;;
66425;SDS011;53237;46.158;14.604;2023-06-19T04:15:51;4.75;;;4.35;;
66425;SDS011;53237;46.158;14.604;2023-06-19T04:18:17;4.53;;;4.13;;
66425;SDS011;53237;46.158;14.604;2023-06-19T04:20:43;4.50;;;4.10;;
66425;SDS011;53237;46.158;14.604;2023-06-19T04:23:09;3.92;;;3.63;;
66425;SDS011;53237;46.158;14.604;2023-06-19T04:25:35;3.95;;;3.65;;
66425;SDS011;53237;46.158;14.604;2023-06-19T04:28:01;3.97;;;3.67;;
66425;SDS011;53237;46.158;14.604;2023-06-19T04:30:28;4.32;;;3.97;;
66425;SDS011;53237;46.158;14.604;2023-06-19T04:32:55;3.80;;;3.50;;
66425;SDS011;53237;46.158;14.604;2023-06-19T04:35:20;4.60;;;4.20;;
66425;SDS011;53237;46.158;14.604;2023-06-19T04:37:48;5.03;;;4.60;;
66425;SDS011;53237;46.158;14.604;2023-06-19T04:40:14;4.38;;;3.97;;
66425;SDS011;53237;46.158;14.604;2023-06-19T04:42:40;4.60;;;4.20;;
66425;SDS011;53237;46.158;14.604;2023-06-19T04:45:07;4.38;;;3.92;;
66425;SDS011;53237;46.158;14.604;2023-06-19T04:47:34;4.35;;;4.05;;
66425;SDS011;53237;46.158;14.604;2023-06-19T04:50:00;4.00;;;3.70;;
66425;SDS011;53237;46.158;14.604;2023-06-19T04:52:26;4.13;;;3.83;;
66425;SDS011;53237;46.158;14.604;2023-06-19T04:54:52;4.47;;;4.07;;
66425;SDS011;53237;46.158;14.604;2023-06-19T04:57:18;4.38;;;4.05;;
66425;SDS011;53237;46.158;14.604;2023-06-19T04:59:44;5.45;;;4.95;;
66425;SDS011;53237;46.158;14.604;2023-06-19T05:02:10;5.57;;;5.07;;
66425;SDS011;53237;46.158;14.604;2023-06-19T05:04:36;5.15;;;4.68;;
66425;SDS011;53237;46.158;14.604;2023-06-19T05:07:02;5.47;;;4.97;;
66425;SDS011;53237;46.158;14.604;2023-06-19T05:09:28;4.95;;;4.55;;
66425;SDS011;53237;46.158;14.604;2023-06-19T05:11:55;4.95;;;4.55;;
66425;SDS011;53237;46.158;14.604;2023-06-19T05:14:21;4.72;;;4.32;;
66425;SDS011;53237;46.158;14.604;2023-06-19T05:16:47;5.18;;;4.68;;
66425;SDS011;53237;46.158;14.604;2023-06-19T05:19:13;8.75;;;6.70;;
66425;SDS011;53237;46.158;14.604;2023-06-19T05:21:39;5.28;;;4.78;;
66425;SDS011;53237;46.158;14.604;2023-06-19T05:24:04;7.85;;;6.35;;
66425;SDS011;53237;46.158;14.604;2023-06-19T05:26:31;6.90;;;6.30;;
66425;SDS011;53237;46.158;14.604;2023-06-19T05:28:57;6.95;;;6.25;;
66425;SDS011;53237;46.158;14.604;2023-06-19T05:31:23;7.10;;;5.78;;
66425;SDS011;53237;46.158;14.604;2023-06-19T05:33:49;7.47;;;6.32;;
66425;SDS011;53237;46.158;14.604;2023-06-19T05:36:15;8.88;;;6.82;;
66425;SDS011;53237;46.158;14.604;2023-06-19T05:38:41;7.32;;;6.63;;
66425;SDS011;53237;46.158;14.604;2023-06-19T05:41:07;7.72;;;6.97;;
66425;SDS011;53237;46.158;14.604;2023-06-19T05:43:34;8.35;;;7.55;;
66425;SDS011;53237;46.158;14.604;2023-06-19T05:46:00;7.45;;;6.82;;
66425;SDS011;53237;46.158;14.604;2023-06-19T05:48:27;6.65;;;6.07;;
66425;SDS011;53237;46.158;14.604;2023-06-19T05:50:53;7.43;;;6.82;;
66425;SDS011;53237;46.158;14.604;2023-06-19T05:53:19;6.15;;;5.65;;
66425;SDS011;53237;46.158;14.604;2023-06-19T05:55:45;5.88;;;5.38;;
66425;SDS011;53237;46.158;14.604;2023-06-19T05:58:11;6.07;;;5.57;;
66425;SDS011;53237;46.158;14.604;2023-06-19T06:00:37;5.43;;;4.93;;
66425;SDS011;53237;46.158;14.604;2023-06-19T06:03:03;8.10;;;7.40;;
66425;SDS011;53237;46.158;14.604;2023-06-19T06:05:29;7.03;;;6.43;;
66425;SDS011;53237;46.158;14.604;2023-06-19T06:07:55;6.15;;;5.53;;
66425;SDS011;53237;46.158;14.604;2023-06-19T06:10:22;5.95;;;5.35;;
66425;SDS011;53237;46.158;14.604;2023-06-19T06:12:48;5.53;;;4.90;;
66425;SDS011;53237;46.158;14.604;2023-06-19T06:15:14;5.18;;;4.78;;
66425;SDS011;53237;46.158;14.604;2023-06-19T06:17:40;6.72;;;6.20;;
66425;SDS011;53237;46.158;14.604;2023-06-19T06:20:07;5.80;;;5.30;;
66425;SDS011;53237;46.158;14.604;2023-06-19T06:22:37;7.78;;;7.07;;
66425;SDS011;53237;46.158;14.604;2023-06-19T06:25:03;6.43;;;5.78;;
66425;SDS011;53237;46.158;14.604;2023-06-19T06:27:29;6.68;;;5.82;;
66425;SDS011;53237;46.158;14.604;2023-06-19T06:29:55;5.90;;;5.28;;
66425;SDS011;53237;46.158;14.604;2023-06-19T06:32:21;6.57;;;5.32;;
66425;SDS011;53237;46.158;14.604;2023-06-19T06:34:47;6.97;;;5.70;;
66425;SDS011;53237;46.158;14.604;2023-06-19T06:37:13;5.38;;;4.88;;
66425;SDS011;53237;46.158;14.604;2023-06-19T06:39:41;8.07;;;6.43;;
66425;SDS011;53237;46.158;14.604;2023-06-19T06:42:07;8.20;;;7.28;;
66425;SDS011;53237;46.158;14.604;2023-06-19T06:44:33;6.47;;;5.93;;
66425;SDS011;53237;46.158;14.604;2023-06-19T06:46:59;5.65;;;5.25;;
66425;SDS011;53237;46.158;14.604;2023-06-19T06:49:26;7.00;;;5.70;;
66425;SDS011;53237;46.158;14.604;2023-06-19T06:51:52;7.50;;;6.72;;
66425;SDS011;53237;46.158;14.604;2023-06-19T06:54:18;6.70;;;6.10;;
66425;SDS011;53237;46.158;14.604;2023-06-19T06:56:44;5.68;;;5.07;;
66425;SDS011;53237;46.158;14.604;2023-06-19T06:59:12;6.32;;;5.80;;
66425;SDS011;53237;46.158;14.604;2023-06-19T07:01:41;6.32;;;5.72;;
66425;SDS011;53237;46.158;14.604;2023-06-19T07:04:07;6.57;;;5.97;;
66425;SDS011;53237;46.158;14.604;2023-06-19T07:06:32;8.38;;;7.38;;
66425;SDS011;53237;46.158;14.604;2023-06-19T07:08:58;7.32;;;6.10;;
66425;SDS011;53237;46.158;14.604;2023-06-19T07:11:24;6.25;;;5.75;;
66425;SDS011;53237;46.158;14.604;2023-06-19T07:13:50;7.20;;;6.50;;
66425;SDS011;53237;46.158;14.604;2023-06-19T07:16:16;8.07;;;7.10;;
66425;SDS011;53237;46.158;14.604;2023-06-19T07:18:42;7.80;;;7.05;;
66425;SDS011;53237;46.158;14.604;2023-06-19T07:21:10;8.63;;;6.10;;
66425;SDS011;53237;46.158;14.604;2023-06-19T07:23:38;6.57;;;5.80;;
66425;SDS011;53237;46.158;14.604;2023-06-19T07:26:04;7.30;;;6.43;;
66425;SDS011;53237;46.158;14.604;2023-06-19T07:28:30;6.40;;;5.80;;
66425;SDS011;53237;46.158;14.604;2023-06-19T07:30:56;7.57;;;6.15;;
66425;SDS011;53237;46.158;14.604;2023-06-19T07:33:22;7.15;;;6.45;;
66425;SDS011;53237;46.158;14.604;2023-06-19T07:35:48;6.97;;;5.72;;
66425;SDS011;53237;46.158;14.604;2023-06-19T07:38:14;6.07;;;5.57;;
66425;SDS011;53237;46.158;14.604;2023-06-19T07:40:41;7.70;;;5.93;;
66425;SDS011;53237;46.158;14.604;2023-06-19T07:43:07;5.78;;;5.30;;
66425;SDS011;53237;46.158;14.604;2023-06-19T07:45:33;5.82;;;5.32;;
66425;SDS011;53237;46.158;14.604;2023-06-19T07:47:59;5.55;;;5.15;;
66425;SDS011;53237;46.158;14.604;2023-06-19T07:50:25;6.78;;;5.60;;
66425;SDS011;53237;46.158;14.604;2023-06-19T07:52:52;6.00;;;5.45;;
66425;SDS011;53237;46.158;14.604;2023-06-19T07:55:18;6.72;;;5.57;;
66425;SDS011;53237;46.158;14.604;2023-06-19T07:57:43;5.50;;;5.05;;
66425;SDS011;53237;46.158;14.604;2023-06-19T08:00:10;6.88;;;6.15;;
66425;SDS011;53237;46.158;14.604;2023-06-19T08:02:37;7.60;;;5.97;;
66425;SDS011;53237;46.158;14.604;2023-06-19T08:05:04;11.95;;;5.72;;
66425;SDS011;53237;46.158;14.604;2023-06-19T08:07:30;6.15;;;5.30;;
66425;SDS011;53237;46.158;14.604;2023-06-19T08:09:56;6.68;;;5.85;;
66425;SDS011;53237;46.158;14.604;2023-06-19T08:12:22;5.68;;;5.18;;
66425;SDS011;53237;46.158;14.604;2023-06-19T08:14:48;5.50;;;5.00;;
66425;SDS011;53237;46.158;14.604;2023-06-19T08:17:13;5.95;;;5.20;;
66425;SDS011;53237;46.158;14.604;2023-06-19T08:19:39;6.30;;;5.70;;
66425;SDS011;53237;46.158;14.604;2023-06-19T08:22:07;6.53;;;5.88;;
66425;SDS011;53237;46.158;14.604;2023-06-19T08:24:33;6.43;;;5.82;;
66425;SDS011;53237;46.158;14.604;2023-06-19T08:27:01;6.05;;;5.10;;
66425;SDS011;53237;46.158;14.604;2023-06-19T08:29:27;6.55;;;5.47;;
66425;SDS011;53237;46.158;14.604;2023-06-19T08:31:53;6.13;;;5.53;;
66425;SDS011;53237;46.158;14.604;2023-06-19T08:34:19;6.53;;;5.93;;
66425;SDS011;53237;46.158;14.604;2023-06-19T08:36:45;6.25;;;5.65;;
66425;SDS011;53237;46.158;14.604;2023-06-19T08:39:11;5.75;;;5.28;;
66425;SDS011;53237;46.158;14.604;2023-06-19T08:41:37;5.85;;;5.35;;
66425;SDS011;53237;46.158;14.604;2023-06-19T08:44:04;6.05;;;5.50;;
66425;SDS011;53237;46.158;14.604;2023-06-19T08:46:30;5.45;;;4.93;;
66425;SDS011;53237;46.158;14.604;2023-06-19T08:48:56;6.90;;;5.68;;
66425;SDS011;53237;46.158;14.604;2023-06-19T08:51:22;5.10;;;4.70;;
66425;SDS011;53237;46.158;14.604;2023-06-19T08:53:49;5.60;;;5.15;;
66425;SDS011;53237;46.158;14.604;2023-06-19T08:56:18;5.50;;;5.00;;
66425;SDS011;53237;46.158;14.604;2023-06-19T08:58:44;5.35;;;4.85;;
66425;SDS011;53237;46.158;14.604;2023-06-19T09:01:10;5.80;;;5.15;;
66425;SDS011;53237;46.158;14.604;2023-06-19T09:03:36;5.50;;;5.00;;
66425;SDS011;53237;46.158;14.604;2023-06-19T09:06:07;5.55;;;4.90;;
66425;SDS011;53237;46.158;14.604;2023-06-19T09:08:34;5.32;;;4.88;;
66425;SDS011;53237;46.158;14.604;2023-06-19T09:11:01;5.55;;;5.05;;
66425;SDS011;53237;46.158;14.604;2023-06-19T09:13:27;5.53;;;5.05;;
66425;SDS011;53237;46.158;14.604;2023-06-19T09:16:01;5.68;;;5.15;;
66425;SDS011;53237;46.158;14.604;2023-06-19T09:18:28;5.25;;;4.85;;
66425;SDS011;53237;46.158;14.604;2023-06-19T09:20:55;5.30;;;4.90;;
66425;SDS011;53237;46.158;14.604;2023-06-19T09:23:21;5.38;;;4.93;;
66425;SDS011;53237;46.158;14.604;2023-06-19T09:25:51;5.57;;;5.07;;
66425;SDS011;53237;46.158;14.604;2023-06-19T09:28:21;4.80;;;4.50;;
66425;SDS011;53237;46.158;14.604;2023-06-19T09:30:54;5.22;;;4.82;;
66425;SDS011;53237;46.158;14.604;2023-06-19T09:33:21;5.88;;;5.38;;
66425;SDS011;53237;46.158;14.604;2023-06-19T09:35:48;5.60;;;5.10;;
66425;SDS011;53237;46.158;14.604;2023-06-19T09:38:14;5.03;;;4.63;;
66425;SDS011;53237;46.158;14.604;2023-06-19T09:40:43;4.60;;;4.20;;
66425;SDS011;53237;46.158;14.604;2023-06-19T09:43:09;5.22;;;4.82;;
66425;SDS011;53237;46.158;14.604;2023-06-19T09:45:35;5.13;;;4.63;;
66425;SDS011;53237;46.158;14.604;2023-06-19T09:48:01;5.43;;;4.93;;
66425;SDS011;53237;46.158;14.604;2023-06-19T09:50:27;5.80;;;5.32;;
66425;SDS011;53237;46.158;14.604;2023-06-19T09:52:54;5.15;;;4.75;;
66425;SDS011;53237;46.158;14.604;2023-06-19T09:55:21;5.63;;;5.13;;
66425;SDS011;53237;46.158;14.604;2023-06-19T09:57:49;5.28;;;4.88;;
66425;SDS011;53237;46.158;14.604;2023-06-19T10:00:15;5.53;;;4.97;;
66425;SDS011;53237;46.158;14.604;2023-06-19T10:02:47;5.93;;;5.38;;
66425;SDS011;53237;46.158;14.604;2023-06-19T10:05:13;5.22;;;4.72;;
66425;SDS011;53237;46.158;14.604;2023-06-19T10:07:46;6.32;;;5.72;;
66425;SDS011;53237;46.158;14.604;2023-06-19T10:10:22;7.30;;;5.40;;
66425;SDS011;53237;46.158;14.604;2023-06-19T10:12:48;8.80;;;5.95;;
66425;SDS011;53237;46.158;14.604;2023-06-19T10:17:47;5.88;;;5.28;;
66425;SDS011;53237;46.158;14.604;2023-06-19T10:20:27;6.20;;;5.63;;
66425;SDS011;53237;46.158;14.604;2023-06-19T10:22:58;5.88;;;5.28;;
66425;SDS011;53237;46.158;14.604;2023-06-19T10:25:26;5.75;;;5.30;;
66425;SDS011;53237;46.158;14.604;2023-06-19T10:27:53;5.90;;;5.40;;
66425;SDS011;53237;46.158;14.604;2023-06-19T10:30:19;7.65;;;6.00;;
66425;SDS011;53237;46.158;14.604;2023-06-19T10:32:46;5.97;;;5.43;;
66425;SDS011;53237;46.158;14.604;2023-06-19T10:35:12;5.53;;;5.13;;
66425;SDS011;53237;46.158;14.604;2023-06-19T10:37:39;5.75;;;5.25;;
66425;SDS011;53237;46.158;14.604;2023-06-19T10:40:05;5.30;;;4.90;;
66425;SDS011;53237;46.158;14.604;2023-06-19T10:42:44;5.40;;;5.00;;
66425;SDS011;53237;46.158;14.604;2023-06-19T10:45:12;5.45;;;5.05;;
66425;SDS011;53237;46.158;14.604;2023-06-19T10:47:38;6.40;;;5.50;;
66425;SDS011;53237;46.158;14.604;2023-06-19T10:50:14;6.45;;;5.55;;
66425;SDS011;53237;46.158;14.604;2023-06-19T10:52:40;7.93;;;5.90;;
66425;SDS011;53237;46.158;14.604;2023-06-19T10:55:07;6.05;;;5.55;;
66425;SDS011;53237;46.158;14.604;2023-06-19T10:57:33;6.60;;;5.90;;
66425;SDS011;53237;46.158;14.604;2023-06-19T10:59:59;5.30;;;4.90;;
66425;SDS011;53237;46.158;14.604;2023-06-19T11:02:25;6.22;;;5.72;;
66425;SDS011;53237;46.158;14.604;2023-06-19T11:04:54;6.00;;;5.45;;
66425;SDS011;53237;46.158;14.604;2023-06-19T11:07:21;5.65;;;5.15;;
66425;SDS011;53237;46.158;14.604;2023-06-19T11:09:51;5.65;;;5.15;;
66425;SDS011;53237;46.158;14.604;2023-06-19T11:12:20;5.22;;;4.75;;
66425;SDS011;53237;46.158;14.604;2023-06-19T11:14:47;5.75;;;5.15;;
66425;SDS011;53237;46.158;14.604;2023-06-19T11:17:13;6.10;;;5.60;;
66425;SDS011;53237;46.158;14.604;2023-06-19T11:19:39;6.05;;;5.53;;
66425;SDS011;53237;46.158;14.604;2023-06-19T11:22:07;5.38;;;4.97;;
66425;SDS011;53237;46.158;14.604;2023-06-19T11:24:33;5.47;;;5.00;;
66425;SDS011;53237;46.158;14.604;2023-06-19T11:26:59;5.57;;;5.07;;
66425;SDS011;53237;46.158;14.604;2023-06-19T11:29:26;5.70;;;5.22;;
66425;SDS011;53237;46.158;14.604;2023-06-19T11:32:14;5.15;;;4.68;;
66425;SDS011;53237;46.158;14.604;2023-06-19T11:34:39;5.30;;;4.90;;
66425;SDS011;53237;46.158;14.604;2023-06-19T11:37:11;5.60;;;5.20;;
66425;SDS011;53237;46.158;14.604;2023-06-19T11:39:38;4.85;;;4.45;;
66425;SDS011;53237;46.158;14.604;2023-06-19T11:42:04;5.95;;;5.45;;
66425;SDS011;53237;46.158;14.604;2023-06-19T11:44:31;5.65;;;5.25;;
66425;SDS011;53237;46.158;14.604;2023-06-19T11:46:57;5.70;;;5.30;;
66425;SDS011;53237;46.158;14.604;2023-06-19T11:49:26;5.10;;;4.70;;
66425;SDS011;53237;46.158;14.604;2023-06-19T11:51:57;4.97;;;4.50;;
66425;SDS011;53237;46.158;14.604;2023-06-19T11:54:23;4.75;;;4.35;;
66425;SDS011;53237;46.158;14.604;2023-06-19T11:56:49;5.50;;;5.03;;
66425;SDS011;53237;46.158;14.604;2023-06-19T11:59:15;4.70;;;4.30;;
66425;SDS011;53237;46.158;14.604;2023-06-19T12:01:41;5.22;;;4.80;;
66425;SDS011;53237;46.158;14.604;2023-06-19T12:04:07;5.35;;;4.85;;
66425;SDS011;53237;46.158;14.604;2023-06-19T12:06:33;4.45;;;4.15;;
66425;SDS011;53237;46.158;14.604;2023-06-19T12:09:00;4.68;;;4.38;;
66425;SDS011;53237;46.158;14.604;2023-06-19T12:11:27;4.43;;;4.03;;
66425;SDS011;53237;46.158;14.604;2023-06-19T12:13:53;4.80;;;4.40;;
66425;SDS011;53237;46.158;14.604;2023-06-19T12:16:20;4.75;;;4.35;;
66425;SDS011;53237;46.158;14.604;2023-06-19T12:18:46;4.95;;;4.55;;
66425;SDS011;53237;46.158;14.604;2023-06-19T12:21:12;4.65;;;4.35;;
66425;SDS011;53237;46.158;14.604;2023-06-19T12:23:38;4.65;;;4.32;;
66425;SDS011;53237;46.158;14.604;2023-06-19T12:26:04;4.68;;;4.38;;
66425;SDS011;53237;46.158;14.604;2023-06-19T12:28:30;4.40;;;4.10;;
66425;SDS011;53237;46.158;14.604;2023-06-19T12:30:56;4.38;;;4.07;;
66425;SDS011;53237;46.158;14.604;2023-06-19T12:33:23;4.80;;;4.45;;
66425;SDS011;53237;46.158;14.604;2023-06-19T12:35:49;4.65;;;4.25;;
66425;SDS011;53237;46.158;14.604;2023-06-19T12:38:15;5.10;;;4.70;;
66425;SDS011;53237;46.158;14.604;2023-06-19T12:40:42;4.40;;;4.10;;
66425;SDS011;53237;46.158;14.604;2023-06-19T12:43:09;5.00;;;4.60;;
66425;SDS011;53237;46.158;14.604;2023-06-19T12:45:35;4.75;;;4.25;;
66425;SDS011;53237;46.158;14.604;2023-06-19T12:48:01;4.55;;;4.25;;
66425;SDS011;53237;46.158;14.604;2023-06-19T12:50:27;4.78;;;4.32;;
66425;SDS011;53237;46.158;14.604;2023-06-19T12:52:53;5.53;;;5.03;;
66425;SDS011;53237;46.158;14.604;2023-06-19T12:55:18;5.10;;;4.70;;
66425;SDS011;53237;46.158;14.604;2023-06-19T12:57:44;5.10;;;4.63;;
66425;SDS011;53237;46.158;14.604;2023-06-19T13:00:11;5.10;;;4.70;;
66425;SDS011;53237;46.158;14.604;2023-06-19T13:02:38;6.15;;;5.05;;
66425;SDS011;53237;46.158;14.604;2023-06-19T13:05:08;5.20;;;4.80;;
66425;SDS011;53237;46.158;14.604;2023-06-19T13:07:34;5.00;;;4.57;;
66425;SDS011;53237;46.158;14.604;2023-06-19T13:10:00;5.03;;;4.63;;
66425;SDS011;53237;46.158;14.604;2023-06-19T13:12:26;5.10;;;4.70;;
66425;SDS011;53237;46.158;14.604;2023-06-19T13:14:52;5.68;;;5.20;;
66425;SDS011;53237;46.158;14.604;2023-06-19T13:17:18;5.10;;;4.70;;
66425;SDS011;53237;46.158;14.604;2023-06-19T13:19:44;5.10;;;4.70;;
66425;SDS011;53237;46.158;14.604;2023-06-19T13:22:11;5.10;;;4.70;;
66425;SDS011;53237;46.158;14.604;2023-06-19T13:24:37;5.00;;;4.60;;
66425;SDS011;53237;46.158;14.604;2023-06-19T13:27:03;5.20;;;4.80;;
66425;SDS011;53237;46.158;14.604;2023-06-19T13:29:29;5.00;;;4.60;;
66425;SDS011;53237;46.158;14.604;2023-06-19T13:31:55;5.43;;;4.63;;
66425;SDS011;53237;46.158;14.604;2023-06-19T13:34:21;4.88;;;4.47;;
66425;SDS011;53237;46.158;14.604;2023-06-19T13:36:47;5.15;;;4.65;;
66425;SDS011;53237;46.158;14.604;2023-06-19T13:39:14;5.00;;;4.60;;
66425;SDS011;53237;46.158;14.604;2023-06-19T13:41:40;5.55;;;5.05;;
66425;SDS011;53237;46.158;14.604;2023-06-19T13:44:06;4.63;;;4.22;;
66425;SDS011;53237;46.158;14.604;2023-06-19T13:46:32;4.70;;;4.32;;
66425;SDS011;53237;46.158;14.604;2023-06-19T13:48:58;4.50;;;4.15;;
66425;SDS011;53237;46.158;14.604;2023-06-19T13:51:25;5.20;;;4.80;;
66425;SDS011;53237;46.158;14.604;2023-06-19T13:53:51;5.10;;;4.50;;
66425;SDS011;53237;46.158;14.604;2023-06-19T13:56:17;4.63;;;4.22;;
66425;SDS011;53237;46.158;14.604;2023-06-19T13:58:43;4.80;;;4.43;;
66425;SDS011;53237;46.158;14.604;2023-06-19T14:01:09;4.70;;;4.30;;
66425;SDS011;53237;46.158;14.604;2023-06-19T14:03:37;5.00;;;4.60;;
66425;SDS011;53237;46.158;14.604;2023-06-19T14:06:06;5.00;;;4.50;;
66425;SDS011;53237;46.158;14.604;2023-06-19T14:08:32;5.00;;;4.60;;
66425;SDS011;53237;46.158;14.604;2023-06-19T14:10:58;4.43;;;4.13;;
66425;SDS011;53237;46.158;14.604;2023-06-19T14:13:24;5.25;;;4.60;;
66425;SDS011;53237;46.158;14.604;2023-06-19T14:15:50;5.15;;;4.75;;
66425;SDS011;53237;46.158;14.604;2023-06-19T14:18:17;4.63;;;4.22;;
66425;SDS011;53237;46.158;14.604;2023-06-19T14:20:44;8.73;;;5.05;;
66425;SDS011;53237;46.158;14.604;2023-06-19T14:23:10;4.80;;;4.38;;
66425;SDS011;53237;46.158;14.604;2023-06-19T14:25:36;5.07;;;4.65;;
66425;SDS011;53237;46.158;14.604;2023-06-19T14:28:02;5.10;;;4.65;;
66425;SDS011;53237;46.158;14.604;2023-06-19T14:30:29;4.90;;;4.43;;
66425;SDS011;53237;46.158;14.604;2023-06-19T14:32:55;3.97;;;3.67;;